createdAt,value
2023-04-18T00:00:06.464Z,101684.59
2023-04-18T00:01:15.055Z,101686.31
2023-04-18T00:02:17.816Z,101690.78
2023-04-18T00:03:21.941Z,101689.91
2023-04-18T00:04:25.329Z,101689.91
2023-04-18T00:05:29.886Z,101687.38
2023-04-18T00:06:32.538Z,101686.50
2023-04-18T00:07:38.003Z,101690.06
2023-04-18T00:08:40.452Z,101690.00
2023-04-18T00:09:43.716Z,101689.16
2023-04-18T00:10:46.626Z,101686.44
2023-04-18T00:11:49.057Z,101687.34
2023-04-18T00:12:51.710Z,101691.06
2023-04-18T00:13:54.277Z,101683.94
2023-04-18T00:14:58.689Z,101691.94
2023-04-18T00:16:01.797Z,101690.13
2023-04-18T00:17:08.824Z,101697.19
2023-04-18T00:18:11.330Z,101692.75
2023-04-18T00:19:14.476Z,101694.53
2023-04-18T00:20:16.690Z,101684.00
2023-04-18T00:21:18.905Z,101688.44
2023-04-18T00:22:22.555Z,101683.97
2023-04-18T00:23:28.267Z,101687.53
2023-04-18T00:24:30.700Z,101690.19
2023-04-18T00:25:33.207Z,101685.78
2023-04-18T00:26:35.505Z,101684.88
2023-04-18T00:27:41.493Z,101676.97
2023-04-18T00:28:43.742Z,101686.72
2023-04-18T00:29:47.082Z,101691.13
2023-04-18T00:30:51.923Z,101680.56
2023-04-18T00:31:54.346Z,101687.72
2023-04-18T00:32:57.057Z,101683.25
2023-04-18T00:34:00.252Z,101693.91
2023-04-18T00:35:02.534Z,101680.59
2023-04-18T00:36:05.728Z,101688.63
2023-04-18T00:37:09.810Z,101687.75
2023-04-18T00:38:12.136Z,101689.59
2023-04-18T00:39:16.321Z,101687.88
2023-04-18T00:40:18.732Z,101684.28
2023-04-18T00:41:22.550Z,101686.97
2023-04-18T00:42:26.264Z,101688.81
2023-04-18T00:43:28.499Z,101684.38
2023-04-18T00:44:32.282Z,101687.09
2023-04-18T00:45:34.743Z,101690.63
2023-04-18T00:46:36.990Z,101682.59
2023-04-18T00:47:39.822Z,101688.81
2023-04-18T00:48:42.799Z,101690.63
2023-04-18T00:49:45.732Z,101688.03
2023-04-18T00:50:48.223Z,101687.13
2023-04-18T00:51:51.316Z,101691.59
2023-04-18T00:52:53.935Z,101689.84
2023-04-18T00:53:57.037Z,101680.03
2023-04-18T00:55:00.276Z,101690.66
2023-04-18T00:56:02.955Z,101685.34
2023-04-18T00:57:06.347Z,101686.22
2023-04-18T00:58:09.285Z,101681.75
2023-04-18T00:59:12.052Z,101673.78
2023-04-18T01:00:15.275Z,101677.38
2023-04-18T01:01:18.404Z,101667.56
2023-04-18T01:02:20.904Z,101676.41
2023-04-18T01:03:24.143Z,101680.81
2023-04-18T01:04:27.438Z,101680.81
2023-04-18T01:05:30.123Z,101680.88
2023-04-18T01:06:33.218Z,101675.53
2023-04-18T01:07:38.422Z,101679.06
2023-04-18T01:08:42.392Z,101678.19
2023-04-18T01:09:44.952Z,101676.44
2023-04-18T01:10:49.468Z,101671.94
2023-04-18T01:11:51.702Z,101671.06
2023-04-18T01:13:17.101Z,101674.75
2023-04-18T01:14:20.519Z,101677.41
2023-04-18T01:15:22.940Z,101675.63
2023-04-18T01:16:27.797Z,101680.91
2023-04-18T01:17:30.458Z,101680.97
2023-04-18T01:18:34.481Z,101680.97
2023-04-18T01:19:40.390Z,101678.31
2023-04-18T01:20:51.144Z,101683.66
2023-04-18T01:21:55.285Z,101679.19
2023-04-18T01:22:59.048Z,101684.53
2023-04-18T01:24:08.724Z,101677.44
2023-04-18T01:25:11.634Z,101679.22
2023-04-18T01:26:14.192Z,101680.09
2023-04-18T01:27:16.425Z,101671.25
2023-04-18T01:28:21.493Z,101680.16
2023-04-18T01:29:24.613Z,101685.47
2023-04-18T01:30:26.958Z,101687.25
2023-04-18T01:31:29.774Z,101680.16
2023-04-18T01:32:32.131Z,101682.00
2023-04-18T01:33:34.432Z,101684.66
2023-04-18T01:34:36.852Z,101683.78
2023-04-18T01:35:41.524Z,101680.22
2023-04-18T01:36:44.559Z,101683.75
2023-04-18T01:37:47.131Z,101679.31
2023-04-18T01:38:49.341Z,101681.06
2023-04-18T01:39:51.762Z,101680.19
2023-04-18T01:40:54.582Z,101676.69
2023-04-18T01:41:57.872Z,101680.25
2023-04-18T01:43:00.697Z,101682.88
2023-04-18T01:44:03.204Z,101681.13
2023-04-18T01:45:06.421Z,101681.13
2023-04-18T01:46:09.262Z,101689.97
2023-04-18T01:47:11.525Z,101681.09
2023-04-18T01:48:13.868Z,101674.84
2023-04-18T01:49:17.737Z,101683.75
2023-04-18T01:50:20.301Z,101688.16
2023-04-18T01:51:23.323Z,101688.19
2023-04-18T01:52:26.229Z,101683.75
2023-04-18T01:53:28.882Z,101684.63
2023-04-18T01:54:31.368Z,101684.66
2023-04-18T01:55:33.882Z,101686.44
2023-04-18T01:56:36.444Z,101683.72
2023-04-18T01:57:38.710Z,101675.78
2023-04-18T01:58:41.742Z,101685.50
2023-04-18T01:59:44.164Z,101687.31
2023-04-18T02:00:46.674Z,101684.66
2023-04-18T02:01:49.133Z,101680.25
2023-04-18T02:02:53.089Z,101678.44
2023-04-18T02:03:56.587Z,101670.47
2023-04-18T02:04:58.992Z,101669.63
2023-04-18T02:06:02.991Z,101674.91
2023-04-18T02:07:05.584Z,101671.38
2023-04-18T02:08:08.241Z,101672.31
2023-04-18T02:09:13.030Z,101666.94
2023-04-18T02:10:18.980Z,101676.69
2023-04-18T02:11:22.188Z,101677.56
2023-04-18T02:12:24.671Z,101668.75
2023-04-18T02:13:28.316Z,101668.75
2023-04-18T02:14:35.240Z,101673.19
2023-04-18T02:15:37.631Z,101668.75
2023-04-18T02:16:40.736Z,101674.06
2023-04-18T02:17:43.188Z,101668.78
2023-04-18T02:18:45.689Z,101666.97
2023-04-18T02:19:53.034Z,101670.50
2023-04-18T02:20:55.494Z,101672.28
2023-04-18T02:21:57.782Z,101674.91
2023-04-18T02:23:01.218Z,101667.81
2023-04-18T02:24:05.355Z,101671.38
2023-04-18T02:25:08.199Z,101666.09
2023-04-18T02:26:10.678Z,101670.50
2023-04-18T02:27:13.025Z,101666.09
2023-04-18T02:28:15.247Z,101670.56
2023-04-18T02:29:17.700Z,101676.75
2023-04-18T02:30:20.152Z,101665.22
2023-04-18T02:31:22.388Z,101671.44
2023-04-18T02:32:24.964Z,101671.41
2023-04-18T02:33:27.339Z,101675.81
2023-04-18T02:34:29.758Z,101673.16
2023-04-18T02:35:32.282Z,101680.28
2023-04-18T02:36:35.006Z,101678.50
2023-04-18T02:37:38.605Z,101669.63
2023-04-18T02:38:40.888Z,101671.44
2023-04-18T02:39:43.084Z,101676.72
2023-04-18T02:40:45.747Z,101677.63
2023-04-18T02:41:47.972Z,101671.44
2023-04-18T02:42:50.454Z,101674.94
2023-04-18T02:43:52.720Z,101669.66
2023-04-18T02:44:55.816Z,101668.78
2023-04-18T02:45:58.232Z,101672.28
2023-04-18T02:47:00.623Z,101666.13
2023-04-18T02:48:03.209Z,101669.66
2023-04-18T02:49:08.401Z,101665.22
2023-04-18T02:50:11.182Z,101672.31
2023-04-18T02:51:13.908Z,101667.84
2023-04-18T02:52:17.812Z,101669.66
2023-04-18T02:53:21.349Z,101673.19
2023-04-18T02:54:29.585Z,101677.63
2023-04-18T02:55:40.671Z,101675.84
2023-04-18T02:56:42.995Z,101677.63
2023-04-18T02:57:52.658Z,101675.00
2023-04-18T02:59:20.952Z,101679.41
2023-04-18T03:00:43.578Z,101681.16
2023-04-18T03:01:56.655Z,101675.84
2023-04-18T03:02:59.339Z,101674.06
2023-04-18T03:04:28.685Z,101674.06
2023-04-18T03:05:37.375Z,101677.59
2023-04-18T03:06:41.711Z,101679.34
2023-04-18T03:07:44.201Z,101673.19
2023-04-18T03:08:46.700Z,101682.91
2023-04-18T03:09:49.575Z,101671.41
2023-04-18T03:10:57.257Z,101675.84
2023-04-18T03:12:02.451Z,101672.31
2023-04-18T03:13:06.154Z,101671.41
2023-04-18T03:14:08.928Z,101674.06
2023-04-18T03:15:31.271Z,101671.41
2023-04-18T03:16:34.076Z,101677.59
2023-04-18T03:17:38.235Z,101669.63
2023-04-18T03:18:41.582Z,101674.06
2023-04-18T03:19:44.987Z,101673.19
2023-04-18T03:20:49.699Z,101669.66
2023-04-18T03:21:52.555Z,101670.53
2023-04-18T03:22:55.046Z,101676.72
2023-04-18T03:24:00.755Z,101679.34
2023-04-18T03:25:03.259Z,101675.84
2023-04-18T03:26:16.888Z,101671.41
2023-04-18T03:27:21.022Z,101666.09
2023-04-18T03:28:24.031Z,101681.16
2023-04-18T03:29:26.317Z,101679.41
2023-04-18T03:30:28.565Z,101685.59
2023-04-18T03:31:33.542Z,101667.91
2023-04-18T03:32:36.567Z,101672.28
2023-04-18T03:33:39.484Z,101674.09
2023-04-18T03:34:45.494Z,101675.84
2023-04-18T03:35:47.736Z,101670.53
2023-04-18T03:36:50.637Z,101670.53
2023-04-18T03:37:53.091Z,101669.66
2023-04-18T03:39:05.723Z,101675.84
2023-04-18T03:40:10.518Z,101674.06
2023-04-18T03:41:12.759Z,101677.59
2023-04-18T03:42:15.005Z,101676.72
2023-04-18T03:43:21.066Z,101676.75
2023-04-18T03:44:23.837Z,101674.06
2023-04-18T03:45:26.168Z,101678.50
2023-04-18T03:46:28.828Z,101682.91
2023-04-18T03:47:32.391Z,101676.72
2023-04-18T03:48:37.368Z,101683.81
2023-04-18T03:49:46.515Z,101679.41
2023-04-18T03:50:50.497Z,101682.03
2023-04-18T03:51:53.879Z,101686.47
2023-04-18T03:52:56.092Z,101687.31
2023-04-18T03:53:58.316Z,101680.22
2023-04-18T03:55:00.896Z,101681.94
2023-04-18T03:56:08.338Z,101692.56
2023-04-18T03:57:25.688Z,101692.56
2023-04-18T03:58:27.968Z,101689.94
2023-04-18T03:59:30.969Z,101686.41
2023-04-18T04:00:33.748Z,101682.00
2023-04-18T04:01:42.015Z,101689.06
2023-04-18T04:02:44.481Z,101684.63
2023-04-18T04:03:54.143Z,101687.25
2023-04-18T04:04:57.036Z,101684.59
2023-04-18T04:05:59.511Z,101688.13
2023-04-18T04:07:02.117Z,101686.34
2023-04-18T04:08:05.329Z,101674.81
2023-04-18T04:09:09.339Z,101687.22
2023-04-18T04:10:11.764Z,101689.91
2023-04-18T04:11:14.038Z,101691.66
2023-04-18T04:12:17.079Z,101692.59
2023-04-18T04:13:19.512Z,101691.69
2023-04-18T04:14:22.890Z,101695.22
2023-04-18T04:15:25.460Z,101697.91
2023-04-18T04:16:33.888Z,101692.66
2023-04-18T04:17:36.929Z,101701.53
2023-04-18T04:18:39.286Z,101704.16
2023-04-18T04:19:42.260Z,101705.06
2023-04-18T04:20:48.618Z,101707.72
2023-04-18T04:22:13.872Z,101700.63
2023-04-18T04:23:17.671Z,101705.06
2023-04-18T04:24:22.737Z,101704.16
2023-04-18T04:25:29.756Z,101705.03
2023-04-18T04:26:36.185Z,101705.03
2023-04-18T04:27:53.802Z,101705.91
2023-04-18T04:28:57.965Z,101705.91
2023-04-18T04:30:03.498Z,101702.38
2023-04-18T04:31:06.859Z,101705.91
2023-04-18T04:32:10.569Z,101708.59
2023-04-18T04:33:13.955Z,101705.03
2023-04-18T04:34:17.032Z,101706.78
2023-04-18T04:35:19.393Z,101712.13
2023-04-18T04:36:23.160Z,101710.34
2023-04-18T04:37:28.336Z,101712.97
2023-04-18T04:38:44.383Z,101714.75
2023-04-18T04:39:47.434Z,101711.19
2023-04-18T04:41:10.216Z,101712.97
2023-04-18T04:42:13.392Z,101716.50
2023-04-18T04:43:28.762Z,101714.78
2023-04-18T04:44:33.518Z,101713.00
2023-04-18T04:45:36.328Z,101713.00
2023-04-18T04:46:40.396Z,101713.91
2023-04-18T04:47:49.373Z,101723.63
2023-04-18T04:48:53.139Z,101714.75
2023-04-18T04:49:55.800Z,101721.84
2023-04-18T04:50:59.504Z,101709.41
2023-04-18T04:52:03.115Z,101721.81
2023-04-18T04:53:06.474Z,101720.88
2023-04-18T04:54:09.250Z,101724.41
2023-04-18T04:55:11.552Z,101724.44
2023-04-18T04:56:15.711Z,101725.31
2023-04-18T04:57:18.550Z,101726.22
2023-04-18T04:58:21.277Z,101717.34
2023-04-18T04:59:32.687Z,101722.59
2023-04-18T05:00:36.125Z,101727.91
2023-04-18T05:01:38.396Z,101723.50
2023-04-18T05:02:40.861Z,101727.97
2023-04-18T05:03:43.474Z,101731.44
2023-04-18T05:04:46.230Z,101727.91
2023-04-18T05:05:48.614Z,101732.31
2023-04-18T05:06:51.077Z,101721.63
2023-04-18T05:07:53.379Z,101723.38
2023-04-18T05:08:57.520Z,101724.25
2023-04-18T05:10:00.203Z,101729.72
2023-04-18T05:11:03.922Z,101726.22
2023-04-18T05:12:06.677Z,101727.94
2023-04-18T05:13:09.119Z,101729.72
2023-04-18T05:14:12.642Z,101727.91
2023-04-18T05:15:16.413Z,101727.91
2023-04-18T05:16:18.705Z,101731.44
2023-04-18T05:17:21.069Z,101733.31
2023-04-18T05:18:23.522Z,101732.41
2023-04-18T05:19:25.765Z,101734.13
2023-04-18T05:20:28.474Z,101726.13
2023-04-18T05:21:31.353Z,101728.75
2023-04-18T05:22:33.650Z,101732.34
2023-04-18T05:23:37.023Z,101731.44
2023-04-18T05:24:39.559Z,101734.06
2023-04-18T05:25:42.017Z,101732.31
2023-04-18T05:26:44.327Z,101727.84
2023-04-18T05:27:47.180Z,101722.47
2023-04-18T05:28:49.484Z,101721.53
2023-04-18T05:29:52.702Z,101722.38
2023-04-18T05:31:01.501Z,101726.81
2023-04-18T05:32:04.044Z,101730.59
2023-04-18T05:33:06.582Z,101730.59
2023-04-18T05:34:08.794Z,101720.78
2023-04-18T05:35:11.622Z,101727.84
2023-04-18T05:36:13.949Z,101723.31
2023-04-18T05:37:16.153Z,101721.47
2023-04-18T05:38:18.332Z,101720.53
2023-04-18T05:39:20.720Z,101732.09
2023-04-18T05:40:23.228Z,101734.69
2023-04-18T05:41:25.724Z,101724.91
2023-04-18T05:42:27.942Z,101732.94
2023-04-18T05:43:30.254Z,101723.28
2023-04-18T05:44:32.454Z,101734.72
2023-04-18T05:45:35.003Z,101725.94
2023-04-18T05:46:37.466Z,101732.09
2023-04-18T05:47:40.038Z,101733.94
2023-04-18T05:48:42.284Z,101733.03
2023-04-18T05:49:44.694Z,101736.53
2023-04-18T05:50:47.130Z,101735.59
2023-04-18T05:51:49.995Z,101739.13
2023-04-18T05:52:52.634Z,101732.94
2023-04-18T05:53:54.980Z,101740.19
2023-04-18T05:54:57.351Z,101735.75
2023-04-18T05:55:59.960Z,101734.00
2023-04-18T05:57:04.272Z,101733.97
2023-04-18T05:58:07.705Z,101742.78
2023-04-18T05:59:11.001Z,101740.06
2023-04-18T06:00:14.006Z,101742.75
2023-04-18T06:01:18.560Z,101736.59
2023-04-18T06:02:21.336Z,101742.75
2023-04-18T06:03:24.038Z,101744.53
2023-04-18T06:04:26.648Z,101748.09
2023-04-18T06:05:29.612Z,101737.44
2023-04-18T06:06:32.197Z,101740.88
2023-04-18T06:07:34.787Z,101744.38
2023-04-18T06:08:39.178Z,101747.13
2023-04-18T06:09:41.425Z,101747.09
2023-04-18T06:10:44.019Z,101747.91
2023-04-18T06:11:46.596Z,101747.88
2023-04-18T06:12:48.816Z,101751.47
2023-04-18T06:13:51.326Z,101748.88
2023-04-18T06:14:53.556Z,101747.09
2023-04-18T06:15:56.283Z,101748.78
2023-04-18T06:16:58.694Z,101747.97
2023-04-18T06:18:00.909Z,101755.13
2023-04-18T06:19:04.089Z,101756.91
2023-04-18T06:20:07.066Z,101754.44
2023-04-18T06:21:09.280Z,101754.38
2023-04-18T06:22:11.529Z,101752.56
2023-04-18T06:23:13.863Z,101751.63
2023-04-18T06:24:16.490Z,101749.00
2023-04-18T06:25:19.581Z,101748.13
2023-04-18T06:26:22.044Z,101753.38
2023-04-18T06:27:31.629Z,101751.59
2023-04-18T06:28:34.503Z,101749.78
2023-04-18T06:29:38.214Z,101752.31
2023-04-18T06:30:40.546Z,101752.19
2023-04-18T06:31:45.530Z,101751.31
2023-04-18T06:32:48.268Z,101755.72
2023-04-18T06:33:51.356Z,101751.41
2023-04-18T06:34:53.588Z,101753.19
2023-04-18T06:35:56.150Z,101754.88
2023-04-18T06:36:59.005Z,101755.88
2023-04-18T06:38:01.602Z,101756.63
2023-04-18T06:39:03.947Z,101758.31
2023-04-18T06:40:06.847Z,101765.28
2023-04-18T06:41:09.077Z,101756.38
2023-04-18T06:42:11.482Z,101767.91
2023-04-18T06:43:21.966Z,101761.81
2023-04-18T06:44:24.240Z,101762.75
2023-04-18T06:45:27.940Z,101761.91
2023-04-18T06:46:30.477Z,101765.59
2023-04-18T06:47:33.167Z,101765.69
2023-04-18T06:48:35.402Z,101767.44
2023-04-18T06:49:37.812Z,101761.31
2023-04-18T06:50:40.231Z,101763.84
2023-04-18T06:51:42.652Z,101765.50
2023-04-18T06:52:45.631Z,101765.41
2023-04-18T06:53:48.499Z,101761.81
2023-04-18T06:54:50.717Z,101754.56
2023-04-18T06:55:53.228Z,101762.50
2023-04-18T06:56:56.175Z,101759.78
2023-04-18T06:58:00.407Z,101759.84
2023-04-18T06:59:02.986Z,101765.13
2023-04-18T07:00:05.823Z,101767.69
2023-04-18T07:01:08.039Z,101763.31
2023-04-18T07:02:11.171Z,101761.53
2023-04-18T07:03:13.787Z,101766.91
2023-04-18T07:04:16.970Z,101763.38
2023-04-18T07:05:19.701Z,101761.69
2023-04-18T07:06:22.035Z,101766.16
2023-04-18T07:07:24.259Z,101765.16
2023-04-18T07:08:26.737Z,101771.38
2023-04-18T07:09:29.159Z,101763.47
2023-04-18T07:10:32.114Z,101764.22
2023-04-18T07:11:34.390Z,101764.19
2023-04-18T07:12:36.702Z,101759.09
2023-04-18T07:13:39.174Z,101765.13
2023-04-18T07:14:41.552Z,101764.22
2023-04-18T07:15:44.046Z,101767.75
2023-04-18T07:16:47.073Z,101766.81
2023-04-18T07:17:49.590Z,101764.19
2023-04-18T07:18:51.883Z,101769.56
2023-04-18T07:19:54.298Z,101770.28
2023-04-18T07:20:56.734Z,101776.50
2023-04-18T07:21:59.085Z,101764.16
2023-04-18T07:23:01.603Z,101766.75
2023-04-18T07:24:03.885Z,101766.69
2023-04-18T07:25:06.332Z,101772.81
2023-04-18T07:26:10.207Z,101773.75
2023-04-18T07:27:12.477Z,101772.22
2023-04-18T07:28:14.921Z,101767.03
2023-04-18T07:29:18.393Z,101769.59
2023-04-18T07:30:20.721Z,101775.69
2023-04-18T07:31:25.984Z,101765.94
2023-04-18T07:32:28.597Z,101771.41
2023-04-18T07:33:34.045Z,101773.00
2023-04-18T07:34:37.508Z,101776.50
2023-04-18T07:35:40.511Z,101768.66
2023-04-18T07:36:42.868Z,101774.88
2023-04-18T07:37:45.661Z,101765.75
2023-04-18T07:38:48.170Z,101773.91
2023-04-18T07:39:51.620Z,101769.19
2023-04-18T07:41:01.177Z,101768.72
2023-04-18T07:42:04.413Z,101776.88
2023-04-18T07:43:07.047Z,101767.91
2023-04-18T07:44:09.592Z,101774.00
2023-04-18T07:45:11.952Z,101780.19
2023-04-18T07:46:14.400Z,101772.88
2023-04-18T07:47:17.201Z,101771.97
2023-04-18T07:48:22.413Z,101775.34
2023-04-18T07:49:24.704Z,101774.41
2023-04-18T07:50:27.073Z,101772.50
2023-04-18T07:51:31.833Z,101772.56
2023-04-18T07:52:34.510Z,101770.72
2023-04-18T07:53:36.995Z,101761.75
2023-04-18T07:54:39.346Z,101769.50
2023-04-18T07:55:43.290Z,101769.31
2023-04-18T07:56:45.612Z,101771.03
2023-04-18T07:57:50.444Z,101761.22
2023-04-18T07:58:53.195Z,101761.22
2023-04-18T07:59:55.577Z,101763.91
2023-04-18T08:00:57.777Z,101757.72
2023-04-18T08:02:00.127Z,101765.72
2023-04-18T08:03:03.236Z,101760.44
2023-04-18T08:04:06.016Z,101757.63
2023-04-18T08:05:08.947Z,101765.69
2023-04-18T08:06:11.254Z,101754.28
2023-04-18T08:07:13.476Z,101757.84
2023-04-18T08:08:17.011Z,101755.00
2023-04-18T08:09:20.763Z,101755.88
2023-04-18T08:10:23.888Z,101752.94
2023-04-18T08:11:27.293Z,101758.44
2023-04-18T08:12:29.578Z,101757.47
2023-04-18T08:13:32.007Z,101750.06
2023-04-18T08:14:34.439Z,101749.00
2023-04-18T08:15:36.611Z,101745.22
2023-04-18T08:16:39.483Z,101753.97
2023-04-18T08:17:44.393Z,101753.75
2023-04-18T08:18:46.928Z,101759.97
2023-04-18T08:19:52.569Z,101750.34
2023-04-18T08:20:54.876Z,101751.34
2023-04-18T08:22:08.785Z,101753.69
2023-04-18T08:23:13.063Z,101746.78
2023-04-18T08:24:15.821Z,101746.41
2023-04-18T08:25:18.139Z,101751.00
2023-04-18T08:26:20.869Z,101751.53
2023-04-18T08:27:23.092Z,101750.50
2023-04-18T08:28:25.739Z,101757.03
2023-04-18T08:29:28.166Z,101752.94
2023-04-18T08:30:30.491Z,101758.91
2023-04-18T08:31:32.907Z,101759.78
2023-04-18T08:32:36.220Z,101762.97
2023-04-18T08:33:38.455Z,101765.03
2023-04-18T08:34:41.060Z,101762.97
2023-04-18T08:35:43.655Z,101767.16
2023-04-18T08:36:46.012Z,101773.97
2023-04-18T08:37:48.217Z,101772.31
2023-04-18T08:38:50.427Z,101762.78
2023-04-18T08:39:52.851Z,101766.25
2023-04-18T08:40:55.458Z,101763.09
2023-04-18T08:41:59.681Z,101752.00
2023-04-18T08:43:05.020Z,101761.25
2023-04-18T08:44:07.523Z,101762.56
2023-04-18T08:45:10.030Z,101763.53
2023-04-18T08:46:12.794Z,101761.59
2023-04-18T08:47:15.559Z,101759.13
2023-04-18T08:48:18.594Z,101762.50
2023-04-18T08:49:24.183Z,101764.34
2023-04-18T08:50:26.974Z,101760.56
2023-04-18T08:51:35.728Z,101762.44
2023-04-18T08:52:40.100Z,101762.53
2023-04-18T08:53:44.727Z,101756.53
2023-04-18T08:54:49.062Z,101758.56
2023-04-18T08:55:56.344Z,101767.59
2023-04-18T08:57:07.447Z,101767.22
2023-04-18T08:58:12.612Z,101776.25
2023-04-18T08:59:18.428Z,101771.72
2023-04-18T09:00:22.728Z,101773.34
2023-04-18T09:01:57.006Z,101774.22
2023-04-18T09:02:59.950Z,101770.66
2023-04-18T09:04:02.224Z,101774.53
2023-04-18T09:05:15.024Z,101777.34
2023-04-18T09:06:19.347Z,101767.72
2023-04-18T09:07:28.775Z,101770.50
2023-04-18T09:08:31.330Z,101769.41
2023-04-18T09:09:54.258Z,101777.53
2023-04-18T09:11:18.442Z,101774.03
2023-04-18T09:12:26.264Z,101774.28
2023-04-18T09:13:39.505Z,101766.91
2023-04-18T09:14:46.205Z,101765.22
2023-04-18T09:15:54.964Z,101773.22
2023-04-18T09:16:57.728Z,101769.63
2023-04-18T09:18:02.754Z,101769.31
2023-04-18T09:19:18.870Z,101770.44
2023-04-18T09:20:53.328Z,101764.19
2023-04-18T09:22:04.777Z,101776.81
2023-04-18T09:23:11.006Z,101771.06
2023-04-18T09:24:24.464Z,101773.00
2023-04-18T09:25:38.412Z,101768.97
2023-04-18T09:26:43.232Z,101776.22
2023-04-18T09:27:46.083Z,101770.06
2023-04-18T09:28:53.820Z,101784.16
2023-04-18T09:29:58.017Z,101767.81
2023-04-18T09:31:04.407Z,101774.38
2023-04-18T09:32:07.102Z,101768.09
2023-04-18T09:33:10.266Z,101776.00
2023-04-18T09:34:24.916Z,101770.75
2023-04-18T09:35:28.187Z,101762.38
2023-04-18T09:36:32.359Z,101773.72
2023-04-18T09:37:35.321Z,101768.41
2023-04-18T09:38:41.263Z,101774.63
2023-04-18T09:39:44.730Z,101770.78
2023-04-18T09:40:47.322Z,101769.53
2023-04-18T09:41:59.009Z,101776.66
2023-04-18T09:43:16.730Z,101773.03
2023-04-18T09:44:20.353Z,101772.91
2023-04-18T09:45:24.539Z,101776.66
2023-04-18T09:46:27.809Z,101781.47
2023-04-18T09:47:30.896Z,101779.53
2023-04-18T09:48:33.134Z,101773.88
2023-04-18T09:49:35.747Z,101774.25
2023-04-18T09:50:39.358Z,101775.41
2023-04-18T09:51:43.872Z,101769.31
2023-04-18T09:52:47.731Z,101769.41
2023-04-18T09:53:51.012Z,101781.72
2023-04-18T09:54:59.962Z,101776.16
2023-04-18T09:56:03.755Z,101774.81
2023-04-18T09:57:10.368Z,101775.63
2023-04-18T09:58:13.976Z,101784.25
2023-04-18T09:59:34.206Z,101777.31
2023-04-18T10:00:39.146Z,101778.16
2023-04-18T10:01:41.761Z,101785.84
2023-04-18T10:03:05.092Z,101777.09
2023-04-18T10:04:08.176Z,101780.50
2023-04-18T10:05:11.303Z,101775.09
2023-04-18T10:06:16.685Z,101776.91
2023-04-18T10:07:19.173Z,101779.59
2023-04-18T10:08:21.542Z,101778.72
2023-04-18T10:09:24.014Z,101783.97
2023-04-18T10:10:26.769Z,101776.97
2023-04-18T10:11:31.544Z,101786.50
2023-04-18T10:12:35.646Z,101773.44
2023-04-18T10:13:41.623Z,101776.72
2023-04-18T10:14:44.505Z,101777.41
2023-04-18T10:15:47.228Z,101779.03
2023-04-18T10:16:50.625Z,101774.59
2023-04-18T10:19:25.898Z,101777.69
2023-04-18T10:20:30.601Z,101771.91
2023-04-18T10:21:34.788Z,101774.59
2023-04-18T10:22:39.682Z,101769.38
2023-04-18T10:23:42.165Z,101770.91
2023-04-18T10:24:53.819Z,101772.75
2023-04-18T10:25:56.511Z,101779.22
2023-04-18T10:26:58.923Z,101775.78
2023-04-18T10:28:02.541Z,101774.94
2023-04-18T10:29:04.975Z,101772.09
2023-04-18T10:30:09.099Z,101765.91
2023-04-18T10:31:11.914Z,101767.50
2023-04-18T10:32:14.576Z,101768.13
2023-04-18T10:33:30.534Z,101773.44
2023-04-18T10:34:37.576Z,101767.13
2023-04-18T10:36:03.372Z,101768.94
2023-04-18T10:37:06.531Z,101771.47
2023-04-18T10:38:17.168Z,101768.22
2023-04-18T10:39:25.496Z,101770.88
2023-04-18T10:40:35.021Z,101765.66
2023-04-18T10:41:50.064Z,101770.34
2023-04-18T10:42:54.087Z,101770.91
2023-04-18T10:44:12.094Z,101777.22
2023-04-18T10:45:19.566Z,101768.00
2023-04-18T10:46:31.904Z,101767.81
2023-04-18T10:47:35.435Z,101764.59
2023-04-18T10:48:39.398Z,101764.50
2023-04-18T10:49:53.739Z,101764.16
2023-04-18T10:51:22.459Z,101770.34
2023-04-18T10:52:24.860Z,101774.19
2023-04-18T10:53:27.474Z,101768.03
2023-04-18T10:54:49.375Z,101768.78
2023-04-18T10:55:55.288Z,101765.13
2023-04-18T10:56:59.633Z,101766.00
2023-04-18T10:58:03.306Z,101759.25
2023-04-18T10:59:06.751Z,101768.91
2023-04-18T11:00:13.876Z,101760.16
2023-04-18T11:01:26.801Z,101769.84
2023-04-18T11:02:32.484Z,101769.63
2023-04-18T11:03:35.493Z,101763.34
2023-04-18T11:04:38.865Z,101766.22
2023-04-18T11:05:43.875Z,101768.56
2023-04-18T11:06:51.663Z,101768.69
2023-04-18T11:07:54.142Z,101768.84
2023-04-18T11:09:13.523Z,101760.66
2023-04-18T11:10:25.386Z,101764.16
2023-04-18T11:11:27.661Z,101759.69
2023-04-18T11:12:36.093Z,101761.59
2023-04-18T11:13:56.428Z,101763.28
2023-04-18T11:14:59.941Z,101757.09
2023-04-18T11:16:02.408Z,101758.94
2023-04-18T11:17:18.581Z,101761.50
2023-04-18T11:18:20.867Z,101768.00
2023-04-18T11:19:23.768Z,101760.88
2023-04-18T11:20:26.690Z,101754.81
2023-04-18T11:21:30.795Z,101759.97
2023-04-18T11:22:33.283Z,101760.88
2023-04-18T11:23:35.587Z,101764.59
2023-04-18T11:24:38.056Z,101761.03
2023-04-18T11:25:40.783Z,101766.09
2023-04-18T11:26:44.511Z,101764.34
2023-04-18T11:27:48.731Z,101760.78
2023-04-18T11:28:52.942Z,101758.41
2023-04-18T11:29:56.242Z,101758.22
2023-04-18T11:31:00.431Z,101763.50
2023-04-18T11:32:06.277Z,101764.59
2023-04-18T11:33:13.710Z,101764.59
2023-04-18T11:34:16.316Z,101765.75
2023-04-18T11:35:19.837Z,101763.22
2023-04-18T11:36:22.486Z,101773.78
2023-04-18T11:37:24.733Z,101767.50
2023-04-18T11:38:30.916Z,101766.31
2023-04-18T11:39:42.688Z,101766.41
2023-04-18T11:40:49.314Z,101764.44
2023-04-18T11:41:51.895Z,101767.13
2023-04-18T11:42:54.531Z,101769.78
2023-04-18T11:43:56.827Z,101776.91
2023-04-18T11:44:59.284Z,101774.25
2023-04-18T11:46:01.897Z,101769.81
2023-04-18T11:47:04.334Z,101763.75
2023-04-18T11:48:06.737Z,101766.41
2023-04-18T11:49:24.731Z,101770.88
2023-04-18T11:50:27.714Z,101772.41
2023-04-18T11:51:38.821Z,101783.03
2023-04-18T11:52:42.620Z,101776.81
2023-04-18T11:53:44.949Z,101781.94
2023-04-18T11:54:47.148Z,101775.06
2023-04-18T11:55:56.470Z,101773.38
2023-04-18T11:56:58.634Z,101768.94
2023-04-18T11:58:02.190Z,101773.97
2023-04-18T11:59:10.674Z,101779.28
2023-04-18T12:00:13.528Z,101773.84
2023-04-18T12:01:25.049Z,101779.69
2023-04-18T12:02:38.720Z,101779.47
2023-04-18T12:03:41.488Z,101775.97
2023-04-18T12:04:53.432Z,101777.41
2023-04-18T12:06:01.178Z,101777.56
2023-04-18T12:07:05.116Z,101779.31
2023-04-18T12:08:19.078Z,101785.50
2023-04-18T12:09:24.471Z,101787.88
2023-04-18T12:10:29.767Z,101773.75
2023-04-18T12:11:31.939Z,101776.34
2023-04-18T12:12:35.079Z,101776.44
2023-04-18T12:13:37.310Z,101779.22
2023-04-18T12:14:39.562Z,101776.75
2023-04-18T12:15:44.582Z,101779.19
2023-04-18T12:16:49.295Z,101785.34
2023-04-18T12:17:54.686Z,101779.94